sensor_id;sensor_type;location;lat;lon;timestamp;P1;durP1;ratioP1;P2;durP2;ratioP2
21084;SDS011;34247;50.064;19.970;2023-06-10T00:00:10;7.88;;;4.78;;
21084;SDS011;34247;50.064;19.970;2023-06-10T00:01:47;6.65;;;4.38;;
21084;SDS011;34247;50.064;19.970;2023-06-10T00:03:22;5.82;;;3.83;;
21084;SDS011;34247;50.064;19.970;2023-06-10T00:04:56;5.30;;;3.97;;
21084;SDS011;34247;50.064;19.970;2023-06-10T00:06:32;8.07;;;4.85;;
21084;SDS011;34247;50.064;19.970;2023-06-10T00:08:06;10.25;;;4.45;;
21084;SDS011;34247;50.064;19.970;2023-06-10T00:09:39;6.97;;;4.38;;
21084;SDS011;34247;50.064;19.970;2023-06-10T00:11:22;6.32;;;4.50;;
21084;SDS011;34247;50.064;19.970;2023-06-10T00:12:56;6.78;;;4.22;;
21084;SDS011;34247;50.064;19.970;2023-06-10T00:14:35;7.47;;;4.03;;
21084;SDS011;34247;50.064;19.970;2023-06-10T00:16:12;11.13;;;4.40;;
21084;SDS011;34247;50.064;19.970;2023-06-10T00:17:46;10.68;;;4.57;;
21084;SDS011;34247;50.064;19.970;2023-06-10T00:19:24;6.90;;;4.50;;
21084;SDS011;34247;50.064;19.970;2023-06-10T00:20:58;5.40;;;4.32;;
21084;SDS011;34247;50.064;19.970;2023-06-10T00:22:31;6.18;;;4.30;;
21084;SDS011;34247;50.064;19.970;2023-06-10T00:24:05;6.43;;;4.82;;
21084;SDS011;34247;50.064;19.970;2023-06-10T00:25:40;6.20;;;4.50;;
21084;SDS011;34247;50.064;19.970;2023-06-10T00:27:13;7.00;;;3.97;;
21084;SDS011;34247;50.064;19.970;2023-06-10T00:28:47;12.02;;;5.30;;
21084;SDS011;34247;50.064;19.970;2023-06-10T00:30:21;7.70;;;4.60;;
21084;SDS011;34247;50.064;19.970;2023-06-10T00:31:54;10.43;;;4.97;;
21084;SDS011;34247;50.064;19.970;2023-06-10T00:33:29;7.15;;;4.15;;
21084;SDS011;34247;50.064;19.970;2023-06-10T00:35:03;9.77;;;4.43;;
21084;SDS011;34247;50.064;19.970;2023-06-10T00:36:39;7.28;;;4.47;;
21084;SDS011;34247;50.064;19.970;2023-06-10T00:38:13;8.50;;;4.88;;
21084;SDS011;34247;50.064;19.970;2023-06-10T00:39:47;16.55;;;5.10;;
21084;SDS011;34247;50.064;19.970;2023-06-10T00:41:21;7.80;;;4.88;;
21084;SDS011;34247;50.064;19.970;2023-06-10T00:43:02;8.15;;;4.43;;
21084;SDS011;34247;50.064;19.970;2023-06-10T00:44:35;6.15;;;4.53;;
21084;SDS011;34247;50.064;19.970;2023-06-10T00:46:18;6.80;;;4.32;;
21084;SDS011;34247;50.064;19.970;2023-06-10T00:47:55;7.07;;;4.45;;
21084;SDS011;34247;50.064;19.970;2023-06-10T00:49:28;8.60;;;4.75;;
21084;SDS011;34247;50.064;19.970;2023-06-10T00:51:02;6.75;;;4.63;;
21084;SDS011;34247;50.064;19.970;2023-06-10T00:52:41;9.90;;;5.35;;
21084;SDS011;34247;50.064;19.970;2023-06-10T00:54:16;9.20;;;4.30;;
21084;SDS011;34247;50.064;19.970;2023-06-10T00:55:50;8.35;;;4.60;;
21084;SDS011;34247;50.064;19.970;2023-06-10T00:57:24;7.50;;;4.47;;
21084;SDS011;34247;50.064;19.970;2023-06-10T00:58:58;10.63;;;4.93;;
21084;SDS011;34247;50.064;19.970;2023-06-10T01:00:32;8.65;;;4.70;;
21084;SDS011;34247;50.064;19.970;2023-06-10T01:02:07;7.70;;;5.15;;
21084;SDS011;34247;50.064;19.970;2023-06-10T01:03:44;6.30;;;4.72;;
21084;SDS011;34247;50.064;19.970;2023-06-10T01:05:17;7.03;;;4.47;;
21084;SDS011;34247;50.064;19.970;2023-06-10T01:07:23;9.75;;;4.35;;
21084;SDS011;34247;50.064;19.970;2023-06-10T01:11:07;7.25;;;5.03;;
21084;SDS011;34247;50.064;19.970;2023-06-10T01:14:31;7.53;;;4.25;;
21084;SDS011;34247;50.064;19.970;2023-06-10T01:16:05;7.95;;;4.60;;
21084;SDS011;34247;50.064;19.970;2023-06-10T01:19:32;9.23;;;4.70;;
21084;SDS011;34247;50.064;19.970;2023-06-10T01:21:08;7.25;;;4.80;;
21084;SDS011;34247;50.064;19.970;2023-06-10T01:22:53;11.57;;;5.20;;
21084;SDS011;34247;50.064;19.970;2023-06-10T01:24:27;5.82;;;4.63;;
21084;SDS011;34247;50.064;19.970;2023-06-10T01:26:05;7.22;;;4.80;;
21084;SDS011;34247;50.064;19.970;2023-06-10T01:27:42;8.20;;;4.60;;
21084;SDS011;34247;50.064;19.970;2023-06-10T01:29:25;6.88;;;4.25;;
21084;SDS011;34247;50.064;19.970;2023-06-10T01:31:20;7.25;;;4.15;;
21084;SDS011;34247;50.064;19.970;2023-06-10T01:33:23;8.73;;;5.07;;
21084;SDS011;34247;50.064;19.970;2023-06-10T01:35:11;8.07;;;4.63;;
21084;SDS011;34247;50.064;19.970;2023-06-10T01:36:46;8.25;;;5.50;;
21084;SDS011;34247;50.064;19.970;2023-06-10T01:38:22;7.68;;;5.18;;
21084;SDS011;34247;50.064;19.970;2023-06-10T01:39:59;7.22;;;4.53;;
21084;SDS011;34247;50.064;19.970;2023-06-10T01:41:34;7.68;;;4.95;;
21084;SDS011;34247;50.064;19.970;2023-06-10T01:43:08;11.23;;;5.32;;
21084;SDS011;34247;50.064;19.970;2023-06-10T01:44:42;8.27;;;5.45;;
21084;SDS011;34247;50.064;19.970;2023-06-10T01:46:19;8.20;;;5.25;;
21084;SDS011;34247;50.064;19.970;2023-06-10T01:47:53;5.45;;;4.32;;
21084;SDS011;34247;50.064;19.970;2023-06-10T01:49:26;10.50;;;5.65;;
21084;SDS011;34247;50.064;19.970;2023-06-10T01:50:59;6.65;;;4.38;;
21084;SDS011;34247;50.064;19.970;2023-06-10T01:52:34;16.35;;;5.57;;
21084;SDS011;34247;50.064;19.970;2023-06-10T01:54:09;6.85;;;4.90;;
21084;SDS011;34247;50.064;19.970;2023-06-10T01:55:43;11.77;;;5.47;;
21084;SDS011;34247;50.064;19.970;2023-06-10T01:57:16;10.18;;;5.03;;
21084;SDS011;34247;50.064;19.970;2023-06-10T01:58:50;11.05;;;5.65;;
21084;SDS011;34247;50.064;19.970;2023-06-10T02:00:23;6.07;;;4.63;;
21084;SDS011;34247;50.064;19.970;2023-06-10T02:01:58;8.73;;;4.82;;
21084;SDS011;34247;50.064;19.970;2023-06-10T02:03:31;9.60;;;5.57;;
21084;SDS011;34247;50.064;19.970;2023-06-10T02:05:04;12.80;;;5.03;;
21084;SDS011;34247;50.064;19.970;2023-06-10T02:06:38;9.15;;;5.45;;
21084;SDS011;34247;50.064;19.970;2023-06-10T02:08:13;10.88;;;5.40;;
21084;SDS011;34247;50.064;19.970;2023-06-10T02:09:46;8.05;;;5.18;;
21084;SDS011;34247;50.064;19.970;2023-06-10T02:11:22;8.15;;;5.20;;
21084;SDS011;34247;50.064;19.970;2023-06-10T02:12:56;8.23;;;5.18;;
21084;SDS011;34247;50.064;19.970;2023-06-10T02:14:31;9.15;;;5.18;;
21084;SDS011;34247;50.064;19.970;2023-06-10T02:16:10;8.20;;;5.65;;
21084;SDS011;34247;50.064;19.970;2023-06-10T02:17:44;11.13;;;5.53;;
21084;SDS011;34247;50.064;19.970;2023-06-10T02:19:21;10.43;;;4.72;;
21084;SDS011;34247;50.064;19.970;2023-06-10T02:20:57;8.02;;;5.43;;
21084;SDS011;34247;50.064;19.970;2023-06-10T02:22:31;8.55;;;5.38;;
21084;SDS011;34247;50.064;19.970;2023-06-10T02:24:04;6.80;;;4.95;;
21084;SDS011;34247;50.064;19.970;2023-06-10T02:25:39;8.52;;;5.35;;
21084;SDS011;34247;50.064;19.970;2023-06-10T02:27:19;7.50;;;4.25;;
21084;SDS011;34247;50.064;19.970;2023-06-10T02:28:54;7.07;;;5.18;;
21084;SDS011;34247;50.064;19.970;2023-06-10T02:30:31;5.82;;;5.25;;
21084;SDS011;34247;50.064;19.970;2023-06-10T02:32:09;9.50;;;5.18;;
21084;SDS011;34247;50.064;19.970;2023-06-10T02:33:49;11.35;;;4.95;;
21084;SDS011;34247;50.064;19.970;2023-06-10T02:35:22;6.07;;;4.35;;
21084;SDS011;34247;50.064;19.970;2023-06-10T02:37:01;8.68;;;4.97;;
21084;SDS011;34247;50.064;19.970;2023-06-10T02:38:35;10.07;;;5.00;;
21084;SDS011;34247;50.064;19.970;2023-06-10T02:40:12;8.40;;;4.95;;
21084;SDS011;34247;50.064;19.970;2023-06-10T02:41:55;7.20;;;4.80;;
21084;SDS011;34247;50.064;19.970;2023-06-10T02:43:28;10.55;;;4.65;;
21084;SDS011;34247;50.064;19.970;2023-06-10T02:45:06;9.20;;;4.53;;
21084;SDS011;34247;50.064;19.970;2023-06-10T02:46:42;5.05;;;3.80;;
21084;SDS011;34247;50.064;19.970;2023-06-10T02:48:20;10.70;;;4.65;;
21084;SDS011;34247;50.064;19.970;2023-06-10T02:50:03;10.90;;;5.20;;
21084;SDS011;34247;50.064;19.970;2023-06-10T02:51:40;5.53;;;4.55;;
21084;SDS011;34247;50.064;19.970;2023-06-10T02:53:18;7.05;;;4.47;;
21084;SDS011;34247;50.064;19.970;2023-06-10T02:54:54;6.60;;;4.80;;
21084;SDS011;34247;50.064;19.970;2023-06-10T02:56:32;10.57;;;4.63;;
21084;SDS011;34247;50.064;19.970;2023-06-10T02:58:05;6.18;;;4.32;;
21084;SDS011;34247;50.064;19.970;2023-06-10T02:59:38;6.57;;;4.18;;
21084;SDS011;34247;50.064;19.970;2023-06-10T03:01:15;10.57;;;5.05;;
21084;SDS011;34247;50.064;19.970;2023-06-10T03:02:52;7.10;;;4.25;;
21084;SDS011;34247;50.064;19.970;2023-06-10T03:04:25;8.68;;;4.55;;
21084;SDS011;34247;50.064;19.970;2023-06-10T03:06:06;8.80;;;4.75;;
21084;SDS011;34247;50.064;19.970;2023-06-10T03:07:45;8.02;;;5.03;;
21084;SDS011;34247;50.064;19.970;2023-06-10T03:09:18;9.77;;;4.32;;
21084;SDS011;34247;50.064;19.970;2023-06-10T03:10:58;8.27;;;4.70;;
21084;SDS011;34247;50.064;19.970;2023-06-10T03:12:31;9.93;;;4.38;;
21084;SDS011;34247;50.064;19.970;2023-06-10T03:14:07;5.80;;;4.13;;
21084;SDS011;34247;50.064;19.970;2023-06-10T03:15:46;8.10;;;4.53;;
21084;SDS011;34247;50.064;19.970;2023-06-10T03:17:23;9.32;;;4.70;;
21084;SDS011;34247;50.064;19.970;2023-06-10T03:19:01;7.03;;;4.47;;
21084;SDS011;34247;50.064;19.970;2023-06-10T03:20:36;6.13;;;4.30;;
21084;SDS011;34247;50.064;19.970;2023-06-10T03:22:12;7.78;;;3.88;;
21084;SDS011;34247;50.064;19.970;2023-06-10T03:23:56;5.38;;;4.03;;
21084;SDS011;34247;50.064;19.970;2023-06-10T03:25:33;8.57;;;4.78;;
21084;SDS011;34247;50.064;19.970;2023-06-10T03:27:07;7.53;;;4.15;;
21084;SDS011;34247;50.064;19.970;2023-06-10T03:28:45;7.20;;;5.40;;
21084;SDS011;34247;50.064;19.970;2023-06-10T03:30:20;8.50;;;4.28;;
21084;SDS011;34247;50.064;19.970;2023-06-10T03:32:02;9.55;;;4.43;;
21084;SDS011;34247;50.064;19.970;2023-06-10T03:33:39;8.13;;;5.18;;
21084;SDS011;34247;50.064;19.970;2023-06-10T03:35:15;4.38;;;3.70;;
21084;SDS011;34247;50.064;19.970;2023-06-10T03:36:48;16.45;;;5.30;;
21084;SDS011;34247;50.064;19.970;2023-06-10T03:38:25;7.70;;;4.97;;
21084;SDS011;34247;50.064;19.970;2023-06-10T03:40:03;6.32;;;4.35;;
21084;SDS011;34247;50.064;19.970;2023-06-10T03:41:38;11.80;;;4.60;;
21084;SDS011;34247;50.064;19.970;2023-06-10T03:43:14;12.35;;;5.25;;
21084;SDS011;34247;50.064;19.970;2023-06-10T03:44:53;11.30;;;4.60;;
21084;SDS011;34247;50.064;19.970;2023-06-10T03:46:34;7.45;;;4.50;;
21084;SDS011;34247;50.064;19.970;2023-06-10T03:48:11;7.90;;;4.68;;
21084;SDS011;34247;50.064;19.970;2023-06-10T03:49:46;9.02;;;4.72;;
21084;SDS011;34247;50.064;19.970;2023-06-10T03:51:21;8.48;;;4.85;;
21084;SDS011;34247;50.064;19.970;2023-06-10T03:52:59;13.05;;;5.07;;
21084;SDS011;34247;50.064;19.970;2023-06-10T03:54:34;5.90;;;4.20;;
21084;SDS011;34247;50.064;19.970;2023-06-10T03:56:08;6.97;;;4.43;;
21084;SDS011;34247;50.064;19.970;2023-06-10T03:57:44;9.57;;;5.00;;
21084;SDS011;34247;50.064;19.970;2023-06-10T03:59:17;8.57;;;5.00;;
21084;SDS011;34247;50.064;19.970;2023-06-10T04:00:52;7.72;;;4.22;;
21084;SDS011;34247;50.064;19.970;2023-06-10T04:02:28;7.35;;;4.65;;
21084;SDS011;34247;50.064;19.970;2023-06-10T04:04:04;6.68;;;4.65;;
21084;SDS011;34247;50.064;19.970;2023-06-10T04:05:43;10.18;;;5.05;;
21084;SDS011;34247;50.064;19.970;2023-06-10T04:07:17;12.13;;;5.00;;
21084;SDS011;34247;50.064;19.970;2023-06-10T04:09:03;5.50;;;4.28;;
21084;SDS011;34247;50.064;19.970;2023-06-10T04:10:38;8.80;;;5.00;;
21084;SDS011;34247;50.064;19.970;2023-06-10T04:12:13;8.25;;;4.13;;
21084;SDS011;34247;50.064;19.970;2023-06-10T04:13:58;5.38;;;4.20;;
21084;SDS011;34247;50.064;19.970;2023-06-10T04:15:32;7.82;;;5.05;;
21084;SDS011;34247;50.064;19.970;2023-06-10T04:17:08;4.97;;;4.20;;
21084;SDS011;34247;50.064;19.970;2023-06-10T04:18:42;11.38;;;4.80;;
21084;SDS011;34247;50.064;19.970;2023-06-10T04:20:16;9.45;;;5.10;;
21084;SDS011;34247;50.064;19.970;2023-06-10T04:21:54;6.57;;;3.83;;
21084;SDS011;34247;50.064;19.970;2023-06-10T04:23:28;7.50;;;4.57;;
21084;SDS011;34247;50.064;19.970;2023-06-10T04:25:03;6.30;;;4.20;;
21084;SDS011;34247;50.064;19.970;2023-06-10T04:26:36;10.43;;;4.55;;
21084;SDS011;34247;50.064;19.970;2023-06-10T04:28:10;6.03;;;4.35;;
21084;SDS011;34247;50.064;19.970;2023-06-10T04:29:44;5.90;;;4.25;;
21084;SDS011;34247;50.064;19.970;2023-06-10T04:31:21;6.65;;;4.47;;
21084;SDS011;34247;50.064;19.970;2023-06-10T04:32:58;5.53;;;3.80;;
21084;SDS011;34247;50.064;19.970;2023-06-10T04:34:31;6.72;;;4.45;;
21084;SDS011;34247;50.064;19.970;2023-06-10T04:36:06;14.98;;;5.03;;
21084;SDS011;34247;50.064;19.970;2023-06-10T04:37:42;12.52;;;4.55;;
21084;SDS011;34247;50.064;19.970;2023-06-10T04:39:16;10.57;;;4.47;;
21084;SDS011;34247;50.064;19.970;2023-06-10T04:40:56;7.10;;;4.38;;
21084;SDS011;34247;50.064;19.970;2023-06-10T04:42:31;6.97;;;3.65;;
21084;SDS011;34247;50.064;19.970;2023-06-10T04:44:04;10.13;;;4.22;;
21084;SDS011;34247;50.064;19.970;2023-06-10T04:45:41;7.47;;;4.15;;
21084;SDS011;34247;50.064;19.970;2023-06-10T04:47:18;4.88;;;3.50;;
21084;SDS011;34247;50.064;19.970;2023-06-10T04:48:55;4.68;;;3.53;;
21084;SDS011;34247;50.064;19.970;2023-06-10T04:50:30;6.25;;;4.20;;
21084;SDS011;34247;50.064;19.970;2023-06-10T04:52:06;5.35;;;3.65;;
21084;SDS011;34247;50.064;19.970;2023-06-10T04:53:43;6.78;;;3.50;;
21084;SDS011;34247;50.064;19.970;2023-06-10T04:55:16;5.32;;;3.88;;
21084;SDS011;34247;50.064;19.970;2023-06-10T04:56:50;9.10;;;3.45;;
21084;SDS011;34247;50.064;19.970;2023-06-10T04:58:26;5.35;;;3.75;;
21084;SDS011;34247;50.064;19.970;2023-06-10T05:00:01;6.20;;;3.03;;
21084;SDS011;34247;50.064;19.970;2023-06-10T05:01:41;7.68;;;4.15;;
21084;SDS011;34247;50.064;19.970;2023-06-10T05:03:15;4.30;;;3.35;;
21084;SDS011;34247;50.064;19.970;2023-06-10T05:04:53;5.90;;;4.00;;
21084;SDS011;34247;50.064;19.970;2023-06-10T05:06:31;4.20;;;3.25;;
21084;SDS011;34247;50.064;19.970;2023-06-10T05:08:09;3.72;;;3.30;;
21084;SDS011;34247;50.064;19.970;2023-06-10T05:09:43;5.82;;;3.20;;
21084;SDS011;34247;50.064;19.970;2023-06-10T05:11:16;4.00;;;3.10;;
21084;SDS011;34247;50.064;19.970;2023-06-10T05:12:49;6.70;;;3.25;;
21084;SDS011;34247;50.064;19.970;2023-06-10T05:14:23;3.83;;;3.42;;
21084;SDS011;34247;50.064;19.970;2023-06-10T05:16:02;5.55;;;3.60;;
21084;SDS011;34247;50.064;19.970;2023-06-10T05:17:37;5.00;;;2.83;;
21084;SDS011;34247;50.064;19.970;2023-06-10T05:19:18;5.28;;;3.08;;
21084;SDS011;34247;50.064;19.970;2023-06-10T05:20:52;5.07;;;3.05;;
21084;SDS011;34247;50.064;19.970;2023-06-10T05:22:30;6.65;;;3.45;;
21084;SDS011;34247;50.064;19.970;2023-06-10T05:24:03;4.47;;;2.95;;
21084;SDS011;34247;50.064;19.970;2023-06-10T05:25:40;4.45;;;2.95;;
21084;SDS011;34247;50.064;19.970;2023-06-10T05:27:16;4.97;;;3.00;;
21084;SDS011;34247;50.064;19.970;2023-06-10T05:28:54;4.47;;;2.72;;
21084;SDS011;34247;50.064;19.970;2023-06-10T05:30:33;3.90;;;2.88;;
21084;SDS011;34247;50.064;19.970;2023-06-10T05:32:10;4.28;;;2.75;;
21084;SDS011;34247;50.064;19.970;2023-06-10T05:33:46;4.50;;;3.13;;
21084;SDS011;34247;50.064;19.970;2023-06-10T05:35:22;4.97;;;3.00;;
21084;SDS011;34247;50.064;19.970;2023-06-10T05:36:58;4.85;;;2.35;;
21084;SDS011;34247;50.064;19.970;2023-06-10T05:38:34;4.43;;;3.08;;
21084;SDS011;34247;50.064;19.970;2023-06-10T05:40:08;3.65;;;2.75;;
21084;SDS011;34247;50.064;19.970;2023-06-10T05:41:42;4.22;;;2.42;;
21084;SDS011;34247;50.064;19.970;2023-06-10T05:43:20;4.70;;;3.10;;
21084;SDS011;34247;50.064;19.970;2023-06-10T05:44:54;7.03;;;2.80;;
21084;SDS011;34247;50.064;19.970;2023-06-10T05:46:36;5.05;;;2.95;;
21084;SDS011;34247;50.064;19.970;2023-06-10T05:48:09;3.90;;;3.17;;
21084;SDS011;34247;50.064;19.970;2023-06-10T05:49:43;3.53;;;2.72;;
21084;SDS011;34247;50.064;19.970;2023-06-10T05:51:21;4.68;;;3.03;;
21084;SDS011;34247;50.064;19.970;2023-06-10T05:52:54;3.47;;;2.58;;
21084;SDS011;34247;50.064;19.970;2023-06-10T05:54:31;3.50;;;2.72;;
21084;SDS011;34247;50.064;19.970;2023-06-10T05:56:08;3.75;;;2.90;;
21084;SDS011;34247;50.064;19.970;2023-06-10T05:57:42;3.55;;;2.75;;
21084;SDS011;34247;50.064;19.970;2023-06-10T05:59:16;3.95;;;2.90;;
21084;SDS011;34247;50.064;19.970;2023-06-10T06:00:58;3.55;;;2.63;;
21084;SDS011;34247;50.064;19.970;2023-06-10T06:02:31;4.70;;;2.90;;
21084;SDS011;34247;50.064;19.970;2023-06-10T06:04:12;6.45;;;2.90;;
21084;SDS011;34247;50.064;19.970;2023-06-10T06:05:46;3.85;;;2.38;;
21084;SDS011;34247;50.064;19.970;2023-06-10T06:07:29;7.07;;;2.78;;
21084;SDS011;34247;50.064;19.970;2023-06-10T06:09:06;5.25;;;2.30;;
21084;SDS011;34247;50.064;19.970;2023-06-10T06:10:39;4.40;;;2.90;;
21084;SDS011;34247;50.064;19.970;2023-06-10T06:12:13;3.35;;;2.65;;
21084;SDS011;34247;50.064;19.970;2023-06-10T06:13:48;4.30;;;2.35;;
21084;SDS011;34247;50.064;19.970;2023-06-10T06:15:29;4.97;;;2.28;;
21084;SDS011;34247;50.064;19.970;2023-06-10T06:17:04;4.93;;;2.17;;
21084;SDS011;34247;50.064;19.970;2023-06-10T06:18:41;3.42;;;2.65;;
21084;SDS011;34247;50.064;19.970;2023-06-10T06:20:24;4.55;;;2.85;;
21084;SDS011;34247;50.064;19.970;2023-06-10T06:22:01;6.85;;;2.60;;
21084;SDS011;34247;50.064;19.970;2023-06-10T06:23:39;7.65;;;3.08;;
21084;SDS011;34247;50.064;19.970;2023-06-10T06:25:23;7.05;;;2.90;;
21084;SDS011;34247;50.064;19.970;2023-06-10T06:26:56;2.65;;;2.28;;
21084;SDS011;34247;50.064;19.970;2023-06-10T06:28:30;4.25;;;2.45;;
21084;SDS011;34247;50.064;19.970;2023-06-10T06:30:04;5.00;;;2.38;;
21084;SDS011;34247;50.064;19.970;2023-06-10T06:31:40;4.57;;;2.75;;
21084;SDS011;34247;50.064;19.970;2023-06-10T06:33:17;4.78;;;2.53;;
21084;SDS011;34247;50.064;19.970;2023-06-10T06:34:51;4.05;;;2.80;;
21084;SDS011;34247;50.064;19.970;2023-06-10T06:36:27;2.42;;;2.10;;
21084;SDS011;34247;50.064;19.970;2023-06-10T06:38:04;4.78;;;2.70;;
21084;SDS011;34247;50.064;19.970;2023-06-10T06:39:47;5.05;;;2.35;;
21084;SDS011;34247;50.064;19.970;2023-06-10T06:41:21;5.03;;;2.60;;
21084;SDS011;34247;50.064;19.970;2023-06-10T06:42:56;5.82;;;2.88;;
21084;SDS011;34247;50.064;19.970;2023-06-10T06:44:31;3.05;;;2.80;;
21084;SDS011;34247;50.064;19.970;2023-06-10T06:46:10;3.95;;;2.83;;
21084;SDS011;34247;50.064;19.970;2023-06-10T06:47:46;4.68;;;3.30;;
21084;SDS011;34247;50.064;19.970;2023-06-10T06:49:25;4.80;;;3.30;;
21084;SDS011;34247;50.064;19.970;2023-06-10T06:50:59;6.50;;;3.35;;
21084;SDS011;34247;50.064;19.970;2023-06-10T06:52:41;7.43;;;3.13;;
21084;SDS011;34247;50.064;19.970;2023-06-10T06:54:14;5.78;;;3.10;;
21084;SDS011;34247;50.064;19.970;2023-06-10T06:55:50;4.78;;;3.20;;
21084;SDS011;34247;50.064;19.970;2023-06-10T06:57:24;6.40;;;2.70;;
21084;SDS011;34247;50.064;19.970;2023-06-10T06:58:59;3.25;;;2.63;;
21084;SDS011;34247;50.064;19.970;2023-06-10T07:00:34;4.20;;;3.13;;
21084;SDS011;34247;50.064;19.970;2023-06-10T07:02:07;5.78;;;2.55;;
21084;SDS011;34247;50.064;19.970;2023-06-10T07:03:43;4.00;;;3.30;;
21084;SDS011;34247;50.064;19.970;2023-06-10T07:05:20;4.43;;;3.00;;
21084;SDS011;34247;50.064;19.970;2023-06-10T07:06:56;4.57;;;2.78;;
21084;SDS011;34247;50.064;19.970;2023-06-10T07:08:29;4.53;;;2.90;;
21084;SDS011;34247;50.064;19.970;2023-06-10T07:10:04;2.72;;;2.42;;
21084;SDS011;34247;50.064;19.970;2023-06-10T07:11:40;3.40;;;2.85;;
21084;SDS011;34247;50.064;19.970;2023-06-10T07:13:13;2.58;;;2.30;;
21084;SDS011;34247;50.064;19.970;2023-06-10T07:14:47;4.78;;;2.88;;
21084;SDS011;34247;50.064;19.970;2023-06-10T07:16:20;6.28;;;2.05;;
21084;SDS011;34247;50.064;19.970;2023-06-10T07:17:57;5.00;;;2.47;;
21084;SDS011;34247;50.064;19.970;2023-06-10T07:19:40;8.15;;;3.00;;
21084;SDS011;34247;50.064;19.970;2023-06-10T07:21:14;3.80;;;2.80;;
21084;SDS011;34247;50.064;19.970;2023-06-10T07:22:52;6.38;;;2.70;;
21084;SDS011;34247;50.064;19.970;2023-06-10T07:24:27;3.97;;;2.70;;
21084;SDS011;34247;50.064;19.970;2023-06-10T07:26:01;5.05;;;2.83;;
21084;SDS011;34247;50.064;19.970;2023-06-10T07:27:38;4.53;;;3.08;;
21084;SDS011;34247;50.064;19.970;2023-06-10T07:29:22;3.35;;;2.85;;
21084;SDS011;34247;50.064;19.970;2023-06-10T07:30:56;5.93;;;3.00;;
21084;SDS011;34247;50.064;19.970;2023-06-10T07:32:36;5.35;;;2.92;;
21084;SDS011;34247;50.064;19.970;2023-06-10T07:34:10;6.25;;;2.65;;
21084;SDS011;34247;50.064;19.970;2023-06-10T07:35:43;2.70;;;2.30;;
21084;SDS011;34247;50.064;19.970;2023-06-10T07:37:23;3.70;;;2.58;;
21084;SDS011;34247;50.064;19.970;2023-06-10T07:39:14;2.90;;;2.50;;
21084;SDS011;34247;50.064;19.970;2023-06-10T07:40:48;2.72;;;2.28;;
21084;SDS011;34247;50.064;19.970;2023-06-10T07:42:30;3.00;;;2.70;;
21084;SDS011;34247;50.064;19.970;2023-06-10T07:44:18;3.45;;;2.72;;
21084;SDS011;34247;50.064;19.970;2023-06-10T07:45:52;4.25;;;2.22;;
21084;SDS011;34247;50.064;19.970;2023-06-10T07:47:46;3.55;;;2.67;;
21084;SDS011;34247;50.064;19.970;2023-06-10T07:49:20;3.78;;;2.88;;
21084;SDS011;34247;50.064;19.970;2023-06-10T07:50:54;4.30;;;2.92;;
21084;SDS011;34247;50.064;19.970;2023-06-10T07:52:27;3.67;;;2.58;;
21084;SDS011;34247;50.064;19.970;2023-06-10T07:54:01;3.17;;;2.35;;
21084;SDS011;34247;50.064;19.970;2023-06-10T07:55:34;3.20;;;2.38;;
21084;SDS011;34247;50.064;19.970;2023-06-10T07:57:07;5.28;;;2.92;;
21084;SDS011;34247;50.064;19.970;2023-06-10T07:58:40;4.28;;;3.30;;
21084;SDS011;34247;50.064;19.970;2023-06-10T08:00:14;4.53;;;2.33;;
21084;SDS011;34247;50.064;19.970;2023-06-10T08:01:48;3.33;;;2.88;;
21084;SDS011;34247;50.064;19.970;2023-06-10T08:03:21;3.92;;;2.63;;
21084;SDS011;34247;50.064;19.970;2023-06-10T08:04:55;4.22;;;2.83;;
21084;SDS011;34247;50.064;19.970;2023-06-10T08:06:28;4.35;;;3.03;;
21084;SDS011;34247;50.064;19.970;2023-06-10T08:08:02;3.00;;;2.40;;
21084;SDS011;34247;50.064;19.970;2023-06-10T08:09:35;6.85;;;2.90;;
21084;SDS011;34247;50.064;19.970;2023-06-10T08:11:13;3.80;;;2.80;;
21084;SDS011;34247;50.064;19.970;2023-06-10T08:12:47;4.10;;;2.63;;
21084;SDS011;34247;50.064;19.970;2023-06-10T08:14:21;6.53;;;2.60;;
21084;SDS011;34247;50.064;19.970;2023-06-10T08:15:54;5.60;;;2.67;;
21084;SDS011;34247;50.064;19.970;2023-06-10T08:17:28;3.63;;;2.58;;
21084;SDS011;34247;50.064;19.970;2023-06-10T08:19:01;3.97;;;2.55;;
21084;SDS011;34247;50.064;19.970;2023-06-10T08:20:37;3.47;;;2.30;;
21084;SDS011;34247;50.064;19.970;2023-06-10T08:22:10;3.63;;;2.38;;
21084;SDS011;34247;50.064;19.970;2023-06-10T08:23:43;3.58;;;2.65;;
21084;SDS011;34247;50.064;19.970;2023-06-10T08:25:21;2.90;;;2.38;;
21084;SDS011;34247;50.064;19.970;2023-06-10T08:26:57;3.53;;;2.30;;
21084;SDS011;34247;50.064;19.970;2023-06-10T08:28:33;3.70;;;2.90;;
21084;SDS011;34247;50.064;19.970;2023-06-10T08:30:08;3.33;;;2.42;;
21084;SDS011;34247;50.064;19.970;2023-06-10T08:31:43;7.18;;;2.72;;
21084;SDS011;34247;50.064;19.970;2023-06-10T08:33:17;3.05;;;2.30;;
21084;SDS011;34247;50.064;19.970;2023-06-10T08:34:51;9.38;;;2.60;;
21084;SDS011;34247;50.064;19.970;2023-06-10T08:36:24;3.78;;;2.20;;
21084;SDS011;34247;50.064;19.970;2023-06-10T08:37:58;4.78;;;3.00;;
21084;SDS011;34247;50.064;19.970;2023-06-10T08:39:31;7.90;;;3.15;;
21084;SDS011;34247;50.064;19.970;2023-06-10T08:41:05;2.47;;;2.20;;
21084;SDS011;34247;50.064;19.970;2023-06-10T08:43:26;3.78;;;2.55;;
21084;SDS011;34247;50.064;19.970;2023-06-10T08:44:43;7.38;;;2.75;;
21084;SDS011;34247;50.064;19.970;2023-06-10T08:46:18;2.72;;;2.20;;
21084;SDS011;34247;50.064;19.970;2023-06-10T08:47:52;4.38;;;2.83;;
21084;SDS011;34247;50.064;19.970;2023-06-10T08:49:30;3.83;;;2.95;;
21084;SDS011;34247;50.064;19.970;2023-06-10T08:51:10;3.05;;;2.55;;
21084;SDS011;34247;50.064;19.970;2023-06-10T08:52:44;4.93;;;2.92;;
21084;SDS011;34247;50.064;19.970;2023-06-10T08:54:22;3.55;;;2.15;;
21084;SDS011;34247;50.064;19.970;2023-06-10T08:56:02;3.88;;;2.92;;
21084;SDS011;34247;50.064;19.970;2023-06-10T08:57:37;2.60;;;2.05;;
21084;SDS011;34247;50.064;19.970;2023-06-10T08:59:13;6.57;;;2.33;;
21084;SDS011;34247;50.064;19.970;2023-06-10T09:00:48;4.15;;;2.53;;
21084;SDS011;34247;50.064;19.970;2023-06-10T09:02:25;3.05;;;2.10;;
21084;SDS011;34247;50.064;19.970;2023-06-10T09:04:00;3.88;;;2.35;;
21084;SDS011;34247;50.064;19.970;2023-06-10T09:05:35;4.50;;;2.95;;
21084;SDS011;34247;50.064;19.970;2023-06-10T09:07:09;4.28;;;2.75;;
21084;SDS011;34247;50.064;19.970;2023-06-10T09:08:44;4.13;;;2.58;;
21084;SDS011;34247;50.064;19.970;2023-06-10T09:10:17;2.88;;;2.10;;
21084;SDS011;34247;50.064;19.970;2023-06-10T09:11:51;6.38;;;2.22;;
21084;SDS011;34247;50.064;19.970;2023-06-10T09:13:24;2.60;;;2.13;;
21084;SDS011;34247;50.064;19.970;2023-06-10T09:14:58;4.15;;;1.98;;
21084;SDS011;34247;50.064;19.970;2023-06-10T09:16:34;3.45;;;2.55;;
21084;SDS011;34247;50.064;19.970;2023-06-10T09:18:10;4.30;;;2.58;;
21084;SDS011;34247;50.064;19.970;2023-06-10T09:19:44;2.90;;;2.50;;
21084;SDS011;34247;50.064;19.970;2023-06-10T09:21:23;3.92;;;2.38;;
21084;SDS011;34247;50.064;19.970;2023-06-10T09:22:59;3.03;;;2.20;;
21084;SDS011;34247;50.064;19.970;2023-06-10T09:24:33;4.13;;;2.97;;
21084;SDS011;34247;50.064;19.970;2023-06-10T09:26:10;8.82;;;3.00;;
21084;SDS011;34247;50.064;19.970;2023-06-10T09:27:48;14.88;;;2.75;;
21084;SDS011;34247;50.064;19.970;2023-06-10T09:29:24;2.58;;;2.30;;
21084;SDS011;34247;50.064;19.970;2023-06-10T09:31:04;4.57;;;2.10;;
21084;SDS011;34247;50.064;19.970;2023-06-10T09:32:38;2.20;;;1.90;;
21084;SDS011;34247;50.064;19.970;2023-06-10T09:34:13;2.60;;;2.30;;
21084;SDS011;34247;50.064;19.970;2023-06-10T09:35:48;5.82;;;2.35;;